sensor_id;sensor_type;location;lat;lon;timestamp;temperature;humidity
69009;SHT31;56065;52.472;13.380;2023-08-08T00:01:16;15.50;77.43
69009;SHT31;56065;52.472;13.380;2023-08-08T00:03:42;15.45;77.62
69009;SHT31;56065;52.472;13.380;2023-08-08T00:06:07;15.43;77.76
69009;SHT31;56065;52.472;13.380;2023-08-08T00:08:32;15.35;78.08
69009;SHT31;56065;52.472;13.380;2023-08-08T00:10:58;15.31;78.19
69009;SHT31;56065;52.472;13.380;2023-08-08T00:13:23;15.28;78.26
69009;SHT31;56065;52.472;13.380;2023-08-08T00:15:48;15.19;78.48
69009;SHT31;56065;52.472;13.380;2023-08-08T00:18:14;15.19;78.50
69009;SHT31;56065;52.472;13.380;2023-08-08T00:20:39;15.15;78.72
69009;SHT31;56065;52.472;13.380;2023-08-08T00:23:05;15.04;78.91
69009;SHT31;56065;52.472;13.380;2023-08-08T00:25:30;15.06;78.99
69009;SHT31;56065;52.472;13.380;2023-08-08T00:27:55;15.05;79.09
69009;SHT31;56065;52.472;13.380;2023-08-08T00:30:21;15.01;79.19
69009;SHT31;56065;52.472;13.380;2023-08-08T00:32:46;15.04;79.08
69009;SHT31;56065;52.472;13.380;2023-08-08T00:35:11;14.96;78.98
69009;SHT31;56065;52.472;13.380;2023-08-08T00:37:37;15.01;78.77
69009;SHT31;56065;52.472;13.380;2023-08-08T00:40:02;14.92;78.91
69009;SHT31;56065;52.472;13.380;2023-08-08T00:42:28;14.94;79.03
69009;SHT31;56065;52.472;13.380;2023-08-08T00:44:53;14.95;78.83
69009;SHT31;56065;52.472;13.380;2023-08-08T00:47:19;14.88;78.93
69009;SHT31;56065;52.472;13.380;2023-08-08T00:49:45;14.88;78.91
69009;SHT31;56065;52.472;13.380;2023-08-08T00:52:11;14.95;78.88
69009;SHT31;56065;52.472;13.380;2023-08-08T00:54:37;14.83;79.09
69009;SHT31;56065;52.472;13.380;2023-08-08T00:57:02;14.83;79.21
69009;SHT31;56065;52.472;13.380;2023-08-08T00:59:28;14.80;79.34
69009;SHT31;56065;52.472;13.380;2023-08-08T01:01:53;14.77;79.30
69009;SHT31;56065;52.472;13.380;2023-08-08T01:04:19;14.74;79.22
69009;SHT31;56065;52.472;13.380;2023-08-08T01:10:17;14.64;79.20
69009;SHT31;56065;52.472;13.380;2023-08-08T01:12:49;14.65;79.08
69009;SHT31;56065;52.472;13.380;2023-08-08T01:15:17;14.59;79.06
69009;SHT31;56065;52.472;13.380;2023-08-08T01:17:43;14.60;79.21
69009;SHT31;56065;52.472;13.380;2023-08-08T01:20:10;14.54;79.20
69009;SHT31;56065;52.472;13.380;2023-08-08T01:25:24;14.54;78.81
69009;SHT31;56065;52.472;13.380;2023-08-08T01:27:49;14.44;79.09
69009;SHT31;56065;52.472;13.380;2023-08-08T01:30:15;14.54;78.78
69009;SHT31;56065;52.472;13.380;2023-08-08T01:32:40;14.50;78.67
69009;SHT31;56065;52.472;13.380;2023-08-08T01:35:06;14.44;78.74
69009;SHT31;56065;52.472;13.380;2023-08-08T01:37:36;14.53;78.75
69009;SHT31;56065;52.472;13.380;2023-08-08T01:40:05;14.47;78.86
69009;SHT31;56065;52.472;13.380;2023-08-08T01:42:31;14.46;78.60
69009;SHT31;56065;52.472;13.380;2023-08-08T01:44:57;14.43;78.55
69009;SHT31;56065;52.472;13.380;2023-08-08T01:47:23;14.41;78.34
69009;SHT31;56065;52.472;13.380;2023-08-08T01:49:48;14.40;78.38
69009;SHT31;56065;52.472;13.380;2023-08-08T01:52:13;14.37;78.37
69009;SHT31;56065;52.472;13.380;2023-08-08T01:54:39;14.38;78.43
69009;SHT31;56065;52.472;13.380;2023-08-08T01:57:04;14.32;78.33
69009;SHT31;56065;52.472;13.380;2023-08-08T01:59:30;14.32;78.14
69009;SHT31;56065;52.472;13.380;2023-08-08T02:01:55;14.26;78.22
69009;SHT31;56065;52.472;13.380;2023-08-08T02:04:20;14.34;78.18
69009;SHT31;56065;52.472;13.380;2023-08-08T02:06:46;14.46;77.96
69009;SHT31;56065;52.472;13.380;2023-08-08T02:09:11;14.50;77.80
69009;SHT31;56065;52.472;13.380;2023-08-08T02:11:39;14.43;77.74
69009;SHT31;56065;52.472;13.380;2023-08-08T02:14:05;14.50;77.61
69009;SHT31;56065;52.472;13.380;2023-08-08T02:16:30;14.46;77.61
69009;SHT31;56065;52.472;13.380;2023-08-08T02:18:55;14.44;77.71
69009;SHT31;56065;52.472;13.380;2023-08-08T02:21:20;14.36;77.89
69009;SHT31;56065;52.472;13.380;2023-08-08T02:23:46;14.34;77.99
69009;SHT31;56065;52.472;13.380;2023-08-08T02:26:11;14.37;78.21
69009;SHT31;56065;52.472;13.380;2023-08-08T02:28:36;14.33;78.34
69009;SHT31;56065;52.472;13.380;2023-08-08T02:31:02;14.23;78.50
69009;SHT31;56065;52.472;13.380;2023-08-08T02:33:27;14.22;78.86
69009;SHT31;56065;52.472;13.380;2023-08-08T02:35:52;14.24;78.99
69009;SHT31;56065;52.472;13.380;2023-08-08T02:38:18;14.22;79.14
69009;SHT31;56065;52.472;13.380;2023-08-08T02:40:43;14.26;79.15
69009;SHT31;56065;52.472;13.380;2023-08-08T02:43:08;14.26;79.38
69009;SHT31;56065;52.472;13.380;2023-08-08T02:45:37;14.20;79.64
69009;SHT31;56065;52.472;13.380;2023-08-08T02:48:03;14.22;79.55
69009;SHT31;56065;52.472;13.380;2023-08-08T02:50:28;14.20;79.73
69009;SHT31;56065;52.472;13.380;2023-08-08T02:52:54;14.16;80.07
69009;SHT31;56065;52.472;13.380;2023-08-08T02:55:19;14.19;80.19
69009;SHT31;56065;52.472;13.380;2023-08-08T02:57:44;14.23;80.13
69009;SHT31;56065;52.472;13.380;2023-08-08T03:00:10;14.19;80.31
69009;SHT31;56065;52.472;13.380;2023-08-08T03:02:36;14.22;80.37
69009;SHT31;56065;52.472;13.380;2023-08-08T03:05:02;14.20;80.38
69009;SHT31;56065;52.472;13.380;2023-08-08T03:07:27;14.19;80.61
69009;SHT31;56065;52.472;13.380;2023-08-08T03:09:53;14.12;80.83
69009;SHT31;56065;52.472;13.380;2023-08-08T03:12:18;14.15;80.77
69009;SHT31;56065;52.472;13.380;2023-08-08T03:14:43;14.17;80.80
69009;SHT31;56065;52.472;13.380;2023-08-08T03:17:09;14.20;80.61
69009;SHT31;56065;52.472;13.380;2023-08-08T03:19:34;14.23;80.68
69009;SHT31;56065;52.472;13.380;2023-08-08T03:22:00;14.16;80.88
69009;SHT31;56065;52.472;13.380;2023-08-08T03:24:25;14.12;81.01
69009;SHT31;56065;52.472;13.380;2023-08-08T03:26:50;14.16;80.84
69009;SHT31;56065;52.472;13.380;2023-08-08T03:29:16;14.20;81.08
69009;SHT31;56065;52.472;13.380;2023-08-08T03:31:41;14.16;81.14
69009;SHT31;56065;52.472;13.380;2023-08-08T03:34:06;14.19;81.04
69009;SHT31;56065;52.472;13.380;2023-08-08T03:36:32;14.22;80.96
69009;SHT31;56065;52.472;13.380;2023-08-08T03:38:58;14.10;81.26
69009;SHT31;56065;52.472;13.380;2023-08-08T03:41:23;14.12;81.37
69009;SHT31;56065;52.472;13.380;2023-08-08T03:43:49;14.08;81.49
69009;SHT31;56065;52.472;13.380;2023-08-08T03:46:14;14.05;81.64
69009;SHT31;56065;52.472;13.380;2023-08-08T03:48:39;14.06;81.65
69009;SHT31;56065;52.472;13.380;2023-08-08T03:51:05;14.16;81.50
69009;SHT31;56065;52.472;13.380;2023-08-08T03:53:32;14.19;81.84
69009;SHT31;56065;52.472;13.380;2023-08-08T03:55:57;14.22;81.71
69009;SHT31;56065;52.472;13.380;2023-08-08T03:58:23;14.32;81.58
69009;SHT31;56065;52.472;13.380;2023-08-08T04:00:48;14.38;81.44
69009;SHT31;56065;52.472;13.380;2023-08-08T04:03:14;14.37;81.51
69009;SHT31;56065;52.472;13.380;2023-08-08T04:05:40;14.46;81.39
69009;SHT31;56065;52.472;13.380;2023-08-08T04:08:06;14.56;81.19
69009;SHT31;56065;52.472;13.380;2023-08-08T04:10:31;14.67;80.96
69009;SHT31;56065;52.472;13.380;2023-08-08T04:12:57;14.70;80.91
69009;SHT31;56065;52.472;13.380;2023-08-08T04:15:22;14.80;80.83
69009;SHT31;56065;52.472;13.380;2023-08-08T04:17:47;14.92;80.57
69009;SHT31;56065;52.472;13.380;2023-08-08T04:20:13;14.91;80.80
69009;SHT31;56065;52.472;13.380;2023-08-08T04:22:39;14.87;80.41
69009;SHT31;56065;52.472;13.380;2023-08-08T04:25:05;14.95;80.36
69009;SHT31;56065;52.472;13.380;2023-08-08T04:27:31;15.01;80.39
69009;SHT31;56065;52.472;13.380;2023-08-08T04:29:56;15.01;80.40
69009;SHT31;56065;52.472;13.380;2023-08-08T04:32:21;15.01;80.24
69009;SHT31;56065;52.472;13.380;2023-08-08T04:34:47;15.04;80.38
69009;SHT31;56065;52.472;13.380;2023-08-08T04:37:12;15.02;80.16
69009;SHT31;56065;52.472;13.380;2023-08-08T04:39:37;15.01;80.44
69009;SHT31;56065;52.472;13.380;2023-08-08T04:42:03;14.95;80.49
69009;SHT31;56065;52.472;13.380;2023-08-08T04:44:29;14.89;80.74
69009;SHT31;56065;52.472;13.380;2023-08-08T04:46:54;14.95;80.65
69009;SHT31;56065;52.472;13.380;2023-08-08T04:49:19;15.02;80.40
69009;SHT31;56065;52.472;13.380;2023-08-08T04:51:45;15.02;80.50
69009;SHT31;56065;52.472;13.380;2023-08-08T04:54:10;14.95;80.65
69009;SHT31;56065;52.472;13.380;2023-08-08T04:56:35;15.01;80.79
69009;SHT31;56065;52.472;13.380;2023-08-08T04:59:01;15.08;80.66
69009;SHT31;56065;52.472;13.380;2023-08-08T05:01:26;15.05;80.64
69009;SHT31;56065;52.472;13.380;2023-08-08T05:03:51;15.02;80.53
69009;SHT31;56065;52.472;13.380;2023-08-08T05:06:17;15.16;80.52
69009;SHT31;56065;52.472;13.380;2023-08-08T05:08:42;15.32;80.21
69009;SHT31;56065;52.472;13.380;2023-08-08T05:11:08;15.42;80.11
69009;SHT31;56065;52.472;13.380;2023-08-08T05:13:33;15.56;79.64
69009;SHT31;56065;52.472;13.380;2023-08-08T05:15:58;15.65;79.43
69009;SHT31;56065;52.472;13.380;2023-08-08T05:18:24;15.60;79.35
69009;SHT31;56065;52.472;13.380;2023-08-08T05:20:49;15.63;79.38
69009;SHT31;56065;52.472;13.380;2023-08-08T05:23:15;15.71;79.24
69009;SHT31;56065;52.472;13.380;2023-08-08T05:25:40;15.74;79.17
69009;SHT31;56065;52.472;13.380;2023-08-08T05:28:05;15.86;79.02
69009;SHT31;56065;52.472;13.380;2023-08-08T05:30:31;15.87;78.84
69009;SHT31;56065;52.472;13.380;2023-08-08T05:32:56;16.00;78.94
69009;SHT31;56065;52.472;13.380;2023-08-08T05:35:22;16.25;78.64
69009;SHT31;56065;52.472;13.380;2023-08-08T05:37:47;16.40;78.20
69009;SHT31;56065;52.472;13.380;2023-08-08T05:40:12;16.62;77.57
69009;SHT31;56065;52.472;13.380;2023-08-08T05:42:38;16.69;77.31
69009;SHT31;56065;52.472;13.380;2023-08-08T05:45:04;16.83;76.94
69009;SHT31;56065;52.472;13.380;2023-08-08T05:47:30;16.80;77.16
69009;SHT31;56065;52.472;13.380;2023-08-08T05:49:55;16.93;76.77
69009;SHT31;56065;52.472;13.380;2023-08-08T05:52:20;16.90;76.46
69009;SHT31;56065;52.472;13.380;2023-08-08T05:54:47;16.90;76.86
69009;SHT31;56065;52.472;13.380;2023-08-08T05:57:12;16.80;77.16
69009;SHT31;56065;52.472;13.380;2023-08-08T05:59:37;16.92;77.23
69009;SHT31;56065;52.472;13.380;2023-08-08T06:02:03;17.03;76.98
69009;SHT31;56065;52.472;13.380;2023-08-08T06:04:28;17.31;76.52
69009;SHT31;56065;52.472;13.380;2023-08-08T06:06:53;17.44;75.80
69009;SHT31;56065;52.472;13.380;2023-08-08T06:09:19;17.55;75.61
69009;SHT31;56065;52.472;13.380;2023-08-08T06:11:44;17.68;75.60
69009;SHT31;56065;52.472;13.380;2023-08-08T06:14:10;17.63;75.58
69009;SHT31;56065;52.472;13.380;2023-08-08T06:16:35;17.36;75.86
69009;SHT31;56065;52.472;13.380;2023-08-08T06:19:00;17.28;76.28
69009;SHT31;56065;52.472;13.380;2023-08-08T06:21:26;17.47;76.40
69009;SHT31;56065;52.472;13.380;2023-08-08T06:23:51;17.65;75.89
69009;SHT31;56065;52.472;13.380;2023-08-08T06:26:20;17.64;75.54
69009;SHT31;56065;52.472;13.380;2023-08-08T06:28:46;17.98;75.37
69009;SHT31;56065;52.472;13.380;2023-08-08T06:31:12;18.08;74.90
69009;SHT31;56065;52.472;13.380;2023-08-08T06:33:38;17.88;75.04
69009;SHT31;56065;52.472;13.380;2023-08-08T06:36:03;17.81;75.51
69009;SHT31;56065;52.472;13.380;2023-08-08T06:38:29;17.61;75.89
69009;SHT31;56065;52.472;13.380;2023-08-08T06:40:59;17.68;75.85
69009;SHT31;56065;52.472;13.380;2023-08-08T06:43:24;17.70;75.95
69009;SHT31;56065;52.472;13.380;2023-08-08T06:45:49;17.79;76.06
69009;SHT31;56065;52.472;13.380;2023-08-08T06:48:15;17.84;75.14
69009;SHT31;56065;52.472;13.380;2023-08-08T06:50:40;17.98;75.35
69009;SHT31;56065;52.472;13.380;2023-08-08T06:53:05;18.17;75.23
69009;SHT31;56065;52.472;13.380;2023-08-08T06:55:31;18.05;75.06
69009;SHT31;56065;52.472;13.380;2023-08-08T06:57:56;18.10;74.81
69009;SHT31;56065;52.472;13.380;2023-08-08T07:00:21;18.15;74.66
69009;SHT31;56065;52.472;13.380;2023-08-08T07:02:47;18.12;74.26
69009;SHT31;56065;52.472;13.380;2023-08-08T07:05:12;18.17;74.23
69009;SHT31;56065;52.472;13.380;2023-08-08T07:07:37;18.64;74.15
69009;SHT31;56065;52.472;13.380;2023-08-08T07:10:03;19.58;72.74
69009;SHT31;56065;52.472;13.380;2023-08-08T07:12:29;20.37;70.79
69009;SHT31;56065;52.472;13.380;2023-08-08T07:14:54;20.89;69.87
69009;SHT31;56065;52.472;13.380;2023-08-08T07:17:20;20.82;68.00
69009;SHT31;56065;52.472;13.380;2023-08-08T07:19:45;21.15;68.60
69009;SHT31;56065;52.472;13.380;2023-08-08T07:22:11;21.40;68.02
69009;SHT31;56065;52.472;13.380;2023-08-08T07:24:36;21.61;67.55
69009;SHT31;56065;52.472;13.380;2023-08-08T07:27:04;22.16;66.82
69009;SHT31;56065;52.472;13.380;2023-08-08T07:29:29;21.80;65.98
69009;SHT31;56065;52.472;13.380;2023-08-08T07:31:55;21.40;66.58
69009;SHT31;56065;52.472;13.380;2023-08-08T07:34:20;21.58;67.03
69009;SHT31;56065;52.472;13.380;2023-08-08T07:36:47;21.49;67.32
69009;SHT31;56065;52.472;13.380;2023-08-08T07:39:12;21.45;67.15
69009;SHT31;56065;52.472;13.380;2023-08-08T07:41:38;21.60;66.78
69009;SHT31;56065;52.472;13.380;2023-08-08T07:44:04;21.18;67.22
69009;SHT31;56065;52.472;13.380;2023-08-08T07:46:30;20.85;68.06
69009;SHT31;56065;52.472;13.380;2023-08-08T07:48:55;20.79;67.87
69009;SHT31;56065;52.472;13.380;2023-08-08T07:51:21;20.61;68.51
69009;SHT31;56065;52.472;13.380;2023-08-08T07:53:46;20.55;68.90
69009;SHT31;56065;52.472;13.380;2023-08-08T07:56:11;20.72;68.62
69009;SHT31;56065;52.472;13.380;2023-08-08T07:58:37;21.12;68.24
69009;SHT31;56065;52.472;13.380;2023-08-08T08:01:02;21.35;67.58
69009;SHT31;56065;52.472;13.380;2023-08-08T08:03:28;20.69;67.58
69009;SHT31;56065;52.472;13.380;2023-08-08T08:05:53;20.79;68.36
69009;SHT31;56065;52.472;13.380;2023-08-08T08:08:18;21.64;67.58
69009;SHT31;56065;52.472;13.380;2023-08-08T08:10:44;22.69;65.33
69009;SHT31;56065;52.472;13.380;2023-08-08T08:13:11;22.76;64.12
69009;SHT31;56065;52.472;13.380;2023-08-08T08:15:37;22.96;64.03
69009;SHT31;56065;52.472;13.380;2023-08-08T08:18:02;23.51;63.75
69009;SHT31;56065;52.472;13.380;2023-08-08T08:20:28;24.27;62.46
69009;SHT31;56065;52.472;13.380;2023-08-08T08:22:53;24.84;60.03
69009;SHT31;56065;52.472;13.380;2023-08-08T08:25:19;25.49;59.73
69009;SHT31;56065;52.472;13.380;2023-08-08T08:27:45;26.24;58.21
69009;SHT31;56065;52.472;13.380;2023-08-08T08:30:10;26.61;57.34
69009;SHT31;56065;52.472;13.380;2023-08-08T08:32:40;26.64;56.62
69009;SHT31;56065;52.472;13.380;2023-08-08T08:35:06;26.61;56.54
69009;SHT31;56065;52.472;13.380;2023-08-08T08:37:32;26.47;56.99
69009;SHT31;56065;52.472;13.380;2023-08-08T08:39:58;25.69;57.60
69009;SHT31;56065;52.472;13.380;2023-08-08T08:42:24;24.52;59.24
69009;SHT31;56065;52.472;13.380;2023-08-08T08:44:52;23.81;60.71
69009;SHT31;56065;52.472;13.380;2023-08-08T08:47:20;23.44;61.52
69009;SHT31;56065;52.472;13.380;2023-08-08T08:49:46;23.45;62.12
69009;SHT31;56065;52.472;13.380;2023-08-08T08:52:12;23.76;61.66
69009;SHT31;56065;52.472;13.380;2023-08-08T08:54:38;23.96;61.64
69009;SHT31;56065;52.472;13.380;2023-08-08T08:57:03;24.36;61.12
69009;SHT31;56065;52.472;13.380;2023-08-08T08:59:29;23.88;60.22
69009;SHT31;56065;52.472;13.380;2023-08-08T09:01:55;24.33;60.75
69009;SHT31;56065;52.472;13.380;2023-08-08T09:04:21;24.29;60.30
69009;SHT31;56065;52.472;13.380;2023-08-08T09:06:48;23.95;60.49
69009;SHT31;56065;52.472;13.380;2023-08-08T09:09:14;23.50;61.20
69009;SHT31;56065;52.472;13.380;2023-08-08T09:11:43;23.43;62.03
69009;SHT31;56065;52.472;13.380;2023-08-08T09:14:20;23.33;61.89
69009;SHT31;56065;52.472;13.380;2023-08-08T09:16:47;23.38;61.98
69009;SHT31;56065;52.472;13.380;2023-08-08T09:19:13;25.41;59.50
69009;SHT31;56065;52.472;13.380;2023-08-08T09:21:39;27.06;57.24
69009;SHT31;56065;52.472;13.380;2023-08-08T09:24:04;27.78;54.54
69009;SHT31;56065;52.472;13.380;2023-08-08T09:26:30;28.00;54.78
69009;SHT31;56065;52.472;13.380;2023-08-08T09:28:55;27.63;54.00
69009;SHT31;56065;52.472;13.380;2023-08-08T09:31:20;26.62;54.86
69009;SHT31;56065;52.472;13.380;2023-08-08T09:33:46;27.13;55.47
69009;SHT31;56065;52.472;13.380;2023-08-08T09:36:16;27.57;54.71
69009;SHT31;56065;52.472;13.380;2023-08-08T09:38:42;27.60;54.31
69009;SHT31;56065;52.472;13.380;2023-08-08T09:41:07;28.26;54.08
69009;SHT31;56065;52.472;13.380;2023-08-08T09:43:33;29.21;52.77
69009;SHT31;56065;52.472;13.380;2023-08-08T09:45:58;29.44;50.98
69009;SHT31;56065;52.472;13.380;2023-08-08T09:48:30;28.60;50.73
69009;SHT31;56065;52.472;13.380;2023-08-08T09:50:58;27.00;53.29
69009;SHT31;56065;52.472;13.380;2023-08-08T09:53:25;26.41;54.71
69009;SHT31;56065;52.472;13.380;2023-08-08T09:55:54;26.67;53.93
69009;SHT31;56065;52.472;13.380;2023-08-08T09:58:20;25.83;54.43
69009;SHT31;56065;52.472;13.380;2023-08-08T10:00:45;24.60;56.23
69009;SHT31;56065;52.472;13.380;2023-08-08T10:03:11;23.99;58.07
69009;SHT31;56065;52.472;13.380;2023-08-08T10:05:36;23.34;59.47
69009;SHT31;56065;52.472;13.380;2023-08-08T10:08:03;23.11;59.74
69009;SHT31;56065;52.472;13.380;2023-08-08T10:10:29;22.92;60.30
69009;SHT31;56065;52.472;13.380;2023-08-08T10:12:55;22.96;60.92
69009;SHT31;56065;52.472;13.380;2023-08-08T10:15:25;23.23;60.40
69009;SHT31;56065;52.472;13.380;2023-08-08T10:17:54;23.21;60.63
69009;SHT31;56065;52.472;13.380;2023-08-08T10:20:20;22.82;61.36
69009;SHT31;56065;52.472;13.380;2023-08-08T10:22:46;22.73;61.54
69009;SHT31;56065;52.472;13.380;2023-08-08T10:25:32;22.66;61.20
69009;SHT31;56065;52.472;13.380;2023-08-08T10:28:04;25.12;58.15
69009;SHT31;56065;52.472;13.380;2023-08-08T10:31:02;27.43;53.93
69009;SHT31;56065;52.472;13.380;2023-08-08T10:33:28;29.41;50.23
69009;SHT31;56065;52.472;13.380;2023-08-08T10:36:04;29.55;49.82
69009;SHT31;56065;52.472;13.380;2023-08-08T10:38:42;30.34;49.52
69009;SHT31;56065;52.472;13.380;2023-08-08T10:41:14;30.56;48.48
69009;SHT31;56065;52.472;13.380;2023-08-08T10:43:53;30.26;48.44
69009;SHT31;56065;52.472;13.380;2023-08-08T10:46:28;30.06;48.15
69009;SHT31;56065;52.472;13.380;2023-08-08T10:48:56;29.15;49.75
69009;SHT31;56065;52.472;13.380;2023-08-08T10:51:41;27.29;57.88
69009;SHT31;56065;52.472;13.380;2023-08-08T10:54:16;26.28;56.48
69009;SHT31;56065;52.472;13.380;2023-08-08T10:56:54;25.63;56.79
69009;SHT31;56065;52.472;13.380;2023-08-08T10:59:24;25.01;55.99
69009;SHT31;56065;52.472;13.380;2023-08-08T11:01:51;24.91;57.94
69009;SHT31;56065;52.472;13.380;2023-08-08T11:04:22;25.75;58.34
69009;SHT31;56065;52.472;13.380;2023-08-08T11:06:53;27.61;54.86
69009;SHT31;56065;52.472;13.380;2023-08-08T11:09:19;29.03;52.27
69009;SHT31;56065;52.472;13.380;2023-08-08T11:11:45;29.48;51.43
69009;SHT31;56065;52.472;13.380;2023-08-08T11:14:16;29.41;50.05
69009;SHT31;56065;52.472;13.380;2023-08-08T11:16:43;30.19;50.66
69009;SHT31;56065;52.472;13.380;2023-08-08T11:19:10;30.02;50.19
69009;SHT31;56065;52.472;13.380;2023-08-08T11:21:37;29.08;50.71
69009;SHT31;56065;52.472;13.380;2023-08-08T11:24:04;27.76;51.84
69009;SHT31;56065;52.472;13.380;2023-08-08T11:26:31;26.44;56.24
69009;SHT31;56065;52.472;13.380;2023-08-08T11:28:58;24.98;61.32
69009;SHT31;56065;52.472;13.380;2023-08-08T11:31:24;23.75;62.01
69009;SHT31;56065;52.472;13.380;2023-08-08T11:33:50;22.76;62.18
69009;SHT31;56065;52.472;13.380;2023-08-08T11:36:15;21.80;64.27
69009;SHT31;56065;52.472;13.380;2023-08-08T11:38:42;21.50;64.79
69009;SHT31;56065;52.472;13.380;2023-08-08T11:41:10;21.03;65.39
69009;SHT31;56065;52.472;13.380;2023-08-08T11:43:37;20.65;66.37
69009;SHT31;56065;52.472;13.380;2023-08-08T11:46:03;20.72;67.32
69009;SHT31;56065;52.472;13.380;2023-08-08T11:48:28;21.05;66.65
69009;SHT31;56065;52.472;13.380;2023-08-08T11:50:54;22.35;65.92
69009;SHT31;56065;52.472;13.380;2023-08-08T11:53:19;24.39;63.15
69009;SHT31;56065;52.472;13.380;2023-08-08T11:55:46;26.06;60.58
69009;SHT31;56065;52.472;13.380;2023-08-08T11:58:14;26.98;58.11
69009;SHT31;56065;52.472;13.380;2023-08-08T12:00:43;27.74;56.97
69009;SHT31;56065;52.472;13.380;2023-08-08T12:03:10;27.98;55.69
69009;SHT31;56065;52.472;13.380;2023-08-08T12:05:39;28.79;55.40
69009;SHT31;56065;52.472;13.380;2023-08-08T12:08:05;29.04;54.85
69009;SHT31;56065;52.472;13.380;2023-08-08T12:10:31;28.92;53.92
69009;SHT31;56065;52.472;13.380;2023-08-08T12:12:57;28.90;53.66
69009;SHT31;56065;52.472;13.380;2023-08-08T12:15:31;29.33;53.93
69009;SHT31;56065;52.472;13.380;2023-08-08T12:17:58;29.41;53.12
69009;SHT31;56065;52.472;13.380;2023-08-08T12:20:27;29.81;52.78
69009;SHT31;56065;52.472;13.380;2023-08-08T12:22:52;29.96;52.42
69009;SHT31;56065;52.472;13.380;2023-08-08T12:25:18;30.19;51.42
69009;SHT31;56065;52.472;13.380;2023-08-08T12:27:44;30.09;51.00
69009;SHT31;56065;52.472;13.380;2023-08-08T12:30:09;29.78;51.55
69009;SHT31;56065;52.472;13.380;2023-08-08T12:32:35;28.52;52.13
69009;SHT31;56065;52.472;13.380;2023-08-08T12:35:00;26.84;56.43
69009;SHT31;56065;52.472;13.380;2023-08-08T12:37:26;24.88;62.30
69009;SHT31;56065;52.472;13.380;2023-08-08T12:39:51;23.44;65.74
69009;SHT31;56065;52.472;13.380;2023-08-08T12:42:17;23.18;68.36
69009;SHT31;56065;52.472;13.380;2023-08-08T12:44:42;23.24;67.97
69009;SHT31;56065;52.472;13.380;2023-08-08T12:47:08;23.90;67.82
69009;SHT31;56065;52.472;13.380;2023-08-08T12:49:33;24.52;66.04
69009;SHT31;56065;52.472;13.380;2023-08-08T12:51:58;25.22;64.39
69009;SHT31;56065;52.472;13.380;2023-08-08T12:54:24;25.82;63.55
69009;SHT31;56065;52.472;13.380;2023-08-08T12:56:49;25.87;61.85
69009;SHT31;56065;52.472;13.380;2023-08-08T12:59:14;25.61;62.14
69009;SHT31;56065;52.472;13.380;2023-08-08T13:01:40;24.94;64.55
69009;SHT31;56065;52.472;13.380;2023-08-08T13:04:05;24.41;65.83
69009;SHT31;56065;52.472;13.380;2023-08-08T13:06:31;24.40;65.39
69009;SHT31;56065;52.472;13.380;2023-08-08T13:08:56;24.90;63.60
69009;SHT31;56065;52.472;13.380;2023-08-08T13:11:22;25.43;63.84
69009;SHT31;56065;52.472;13.380;2023-08-08T13:13:47;26.01;64.00
69009;SHT31;56065;52.472;13.380;2023-08-08T13:16:12;26.31;61.83
69009;SHT31;56065;52.472;13.380;2023-08-08T13:18:39;26.51;61.29
69009;SHT31;56065;52.472;13.380;2023-08-08T13:21:05;27.13;61.80
69009;SHT31;56065;52.472;13.380;2023-08-08T13:23:31;27.61;58.28
69009;SHT31;56065;52.472;13.380;2023-08-08T13:25:56;28.21;57.39
69009;SHT31;56065;52.472;13.380;2023-08-08T13:28:22;28.44;55.98
69009;SHT31;56065;52.472;13.380;2023-08-08T13:30:47;28.44;54.65
69009;SHT31;56065;52.472;13.380;2023-08-08T13:33:12;27.74;54.80
69009;SHT31;56065;52.472;13.380;2023-08-08T13:35:38;27.19;54.05
69009;SHT31;56065;52.472;13.380;2023-08-08T13:38:04;26.24;54.91
69009;SHT31;56065;52.472;13.380;2023-08-08T13:40:29;25.42;57.77
69009;SHT31;56065;52.472;13.380;2023-08-08T13:42:55;24.15;65.86
69009;SHT31;56065;52.472;13.380;2023-08-08T13:45:20;22.80;68.78
69009;SHT31;56065;52.472;13.380;2023-08-08T13:47:47;21.88;69.63
69009;SHT31;56065;52.472;13.380;2023-08-08T13:50:15;21.39;71.27
69009;SHT31;56065;52.472;13.380;2023-08-08T13:52:41;20.98;71.14
69009;SHT31;56065;52.472;13.380;2023-08-08T13:55:08;20.75;72.62
69009;SHT31;56065;52.472;13.380;2023-08-08T13:57:34;20.65;71.31
69009;SHT31;56065;52.472;13.380;2023-08-08T13:59:59;20.52;72.66
69009;SHT31;56065;52.472;13.380;2023-08-08T14:02:25;20.40;73.21
69009;SHT31;56065;52.472;13.380;2023-08-08T14:04:50;20.34;72.31
69009;SHT31;56065;52.472;13.380;2023-08-08T14:07:18;20.64;72.17
69009;SHT31;56065;52.472;13.380;2023-08-08T14:09:43;21.22;71.12
69009;SHT31;56065;52.472;13.380;2023-08-08T14:12:09;21.84;69.30
69009;SHT31;56065;52.472;13.380;2023-08-08T14:14:34;22.18;68.13
69009;SHT31;56065;52.472;13.380;2023-08-08T14:16:59;22.45;67.46
69009;SHT31;56065;52.472;13.380;2023-08-08T14:19:25;22.38;64.99
69009;SHT31;56065;52.472;13.380;2023-08-08T14:21:50;22.57;64.00
69009;SHT31;56065;52.472;13.380;2023-08-08T14:24:15;22.90;63.85
69009;SHT31;56065;52.472;13.380;2023-08-08T14:26:41;23.40;64.92
69009;SHT31;56065;52.472;13.380;2023-08-08T14:29:06;23.71;63.41
69009;SHT31;56065;52.472;13.380;2023-08-08T14:31:31;23.79;61.13
69009;SHT31;56065;52.472;13.380;2023-08-08T14:33:57;23.81;60.45
69009;SHT31;56065;52.472;13.380;2023-08-08T14:36:22;24.05;61.43
69009;SHT31;56065;52.472;13.380;2023-08-08T14:38:48;24.27;61.45
69009;SHT31;56065;52.472;13.380;2023-08-08T14:41:13;24.59;60.96
69009;SHT31;56065;52.472;13.380;2023-08-08T14:43:38;24.71;59.96
69009;SHT31;56065;52.472;13.380;2023-08-08T14:46:04;24.99;60.53
69009;SHT31;56065;52.472;13.380;2023-08-08T14:48:29;25.05;59.85
69009;SHT31;56065;52.472;13.380;2023-08-08T14:50:54;25.15;59.27
69009;SHT31;56065;52.472;13.380;2023-08-08T14:53:20;25.32;59.59
69009;SHT31;56065;52.472;13.380;2023-08-08T14:55:45;25.70;59.50
69009;SHT31;56065;52.472;13.380;2023-08-08T14:58:13;25.87;58.62
69009;SHT31;56065;52.472;13.380;2023-08-08T15:00:38;25.73;58.51
69009;SHT31;56065;52.472;13.380;2023-08-08T15:03:03;25.58;58.90
69009;SHT31;56065;52.472;13.380;2023-08-08T15:05:30;25.28;57.56
69009;SHT31;56065;52.472;13.380;2023-08-08T15:07:56;25.36;57.50
69009;SHT31;56065;52.472;13.380;2023-08-08T15:10:21;25.50;58.13
69009;SHT31;56065;52.472;13.380;2023-08-08T15:12:47;25.34;57.48
69009;SHT31;56065;52.472;13.380;2023-08-08T15:15:12;25.08;57.63